FW0451 Weather Reports


Display with metric or nautical units.
time (UTC)temp
F
wind
direction
speed
MPH
gust
MPH
rain 1hr
in
rain 24hr
in
rain mn
in
humidity
%
barometer
mb
20191215081623 24 307 9.0 16.0 0.00 0.00 0.00 93 1011.9
20191215080207 24 271 8.0 13.0 0.00 0.00 0.00 93 1011.7
20191215074636 24 277 5.0 8.0 0.00 0.00 0.00 93 1011.5
20191215073206 24 239 2.0 5.0 0.00 0.00 0.00 93 1011.4
20191215071622 24 278 7.0 11.0 0.00 0.00 0.00 92 1011.5
20191215070146 25 281 6.0 12.0 0.00 0.00 0.00 91 1011.4
20191215064715 24 273 6.0 11.0 0.00 0.00 0.00 92 1011.0
20191215063059 25 252 9.0 18.0 0.00 0.00 0.00 91 1011.0
20191215061552 25 267 6.0 17.0 0.00 0.00 0.00 91 1011.0
20191215060110 25 288 3.0 9.0 0.00 0.00 0.00 89 1010.9
20191215054639 26 302 4.0 14.0 0.00 0.00 0.00 83 1010.7
20191215053052 26 219 4.0 10.0 0.00 0.00 0.00 80 1010.7
20191215051547 26 313 3.0 8.0 0.00 0.00 0.00 81 1010.9
20191215050027 27 188 1.0 10.0 0.00 0.00 0.00 75 1010.8
20191215044557 27 227 1.0 5.0 0.00 0.00 0.00 72 1010.9
20191215043056 27 293 0.0 6.0 0.00 0.00 0.00 73 1010.9
20191215041614 27 94 2.0 6.0 0.00 0.00 0.00 72 1010.9
20191215040038 28 76 2.0 8.0 0.00 0.00 0.00 70 1010.9
20191215034552 28 205 3.0 9.0 0.00 0.00 0.00 65 1010.8
20191215033019 28 124 1.0 8.0 0.00 0.00 0.00 63 1010.8
20191215031526 28 179 4.0 8.0 0.00 0.00 0.00 61 1010.7
20191215030041 28 240 4.0 13.0 0.00 0.00 0.00 61 1010.8
20191215024541 28 110 3.0 13.0 0.00 0.00 0.00 62 1011.2
20191215023042 28 207 3.0 11.0 0.00 0.00 0.00 61 1011.4
20191215021519 28 238 6.0 14.0 0.00 0.00 0.00 62 1011.3
20191215020026 28 150 6.0 14.0 0.00 0.00 0.00 62 1011.4
20191215014520 28 261 4.0 14.0 0.00 0.00 0.00 62 1011.4
20191215013025 29 261 9.0 16.0 0.00 0.00 0.00 61 1011.6
20191215011535 29 253 5.0 12.0 0.00 0.00 0.00 60 1012.1
20191215010012 29 290 7.0 15.0 0.00 0.00 0.00 58 1012.0
20191215004538 30 267 9.0 18.0 0.00 0.00 0.00 57 1012.1
20191215003005 30 258 5.0 15.0 0.00 0.00 0.00 56 1012.3
20191215001506 31 293 5.0 11.0 0.00 0.00 0.00 58 1012.7
20191215000006 31 268 7.0 14.0 0.00 0.00 0.00 57 1012.7
20191214234503 32 290 4.0 9.0 0.00 0.00 0.00 56 1013.0
20191214233014 31 219 3.0 16.0 0.00 0.00 0.00 58 1013.0
20191214231503 32 299 8.0 14.0 0.00 0.00 0.00 52 1013.1
20191214230005 33 251 7.0 17.0 0.00 0.00 0.00 52 1013.0
20191214224748 33 282 8.0 15.0 0.00 0.00 0.00 52 1013.1
20191214223519 33 300 4.0 14.0 0.00 0.00 0.00 51 1013.1
20191214221709 34 246 6.0 15.0 0.00 0.00 0.00 49 1013.3
20191214220235 34 293 8.0 16.0 0.00 0.00 0.00 46 1013.3
20191214214801 35 285 4.0 14.0 0.00 0.00 0.00 45 1013.3
20191214213153 34 309 3.0 10.0 0.00 0.00 0.00 48 1013.4
20191214211741 33 304 3.0 7.0 0.00 0.00 0.00 59 1013.6
20191214210145 32 220 2.0 6.0 0.00 0.00 0.00 65 1014.0
20191214204622 32 281 2.0 6.0 0.00 0.00 0.00 68 1014.1
20191214203146 32 271 4.0 6.0 0.00 0.00 0.00 66 1014.2
20191214201751 33 281 3.0 5.0 0.00 0.00 0.00 64 1014.5
20191214200131 32 198 1.0 4.0 0.00 0.00 0.00 65 1014.6
20191214194647 34 280 3.0 12.0 0.00 0.00 0.00 65 1014.7
20191214193244 34 269 4.0 10.0 0.00 0.00 0.00 60 1014.8
20191214191657 34 104 4.0 10.0 0.00 0.00 0.00 66 1014.9
20191214190106 32 51 1.0 3.0 0.00 0.00 0.00 76 1015.0
20191214184631 33 351 1.0 6.0 0.00 0.00 0.00 77 1015.2
20191214183112 33 84 4.0 6.0 0.00 0.00 0.00 75 1015.3
20191214181740 33 69 0.0 4.0 0.00 0.00 0.00 78 1015.4
20191214180124 31 275 0.0 5.0 0.00 0.00 0.00 73 1015.3
20191214174711 32 290 1.0 5.0 0.00 0.00 0.00 74 1015.4
20191214173056 32 281 0.0 2.0 0.00 0.00 0.00 78 1015.4
20191214171636 32 18 0.0 3.0 0.00 0.00 0.00 81 1015.3
20191214170106 32 89 0.0 3.0 0.00 0.00 0.00 81 1015.3
20191214164554 31 74 0.0 1.0 0.00 0.00 0.00 83 1015.1
20191214163100 29 74 0.0 1.0 0.00 0.00 0.00 87 1015.0
20191214161637 27 79 0.0 2.0 0.00 0.00 0.00 92 1015.0
20191214160242 26 102 0.0 2.0 0.00 0.00 0.00 91 1014.9
20191214154611 26 89 0.0 1.0 0.00 0.00 0.00 90 1014.8
20191214153036 27 90 0.0 3.0 0.00 0.00 0.00 89 1014.7
20191214151602 27 59 0.0 2.0 0.00 0.00 0.00 87 1014.5
20191214150052 27 65 0.0 2.0 0.00 0.00 0.00 84 1014.3
20191214144559 28 293 0.0 2.0 0.00 0.00 0.00 80 1014.3
20191214143033 29 287 3.0 8.0 0.00 0.00 0.00 75 1014.4
20191214141554 30 282 7.0 13.0 0.00 0.00 0.00 73 1014.1
20191214140008 30 240 10.0 16.0 0.00 0.00 0.00 66 1013.9
20191214134509 31 290 10.0 19.0 0.00 0.00 0.00 65 1013.4
20191214133003 30 262 9.0 15.0 0.00 0.00 0.00 68 1013.4
20191214131812 30 271 8.0 16.0 0.00 0.00 0.00 69 1013.4
20191214130206 30 257 3.0 8.0 0.00 0.00 0.00 73 1013.4
20191214124907 31 95 1.0 6.0 0.00 0.00 0.00 83 1013.3
20191214123226 30 74 2.0 4.0 0.00 0.00 0.00 83 1013.3
20191214121757 31 80 0.0 1.0 0.00 0.00 0.00 82 1013.1
20191214120209 31 41 0.0 3.0 0.00 0.00 0.00 80 1013.0
20191214114738 31 62 1.0 6.0 0.00 0.00 0.00 80 1012.9
20191214113125 32 86 2.0 9.0 0.00 0.00 0.00 78 1012.7
20191214111635 32 323 5.0 16.0 0.00 0.00 0.00 74 1012.2
20191214110222 34 257 9.0 19.0 0.00 0.00 0.00 72 1012.2
20191214104643 35 273 7.0 25.0 0.00 0.00 0.00 62 1012.3
20191214103126 35 222 5.0 15.0 0.00 0.00 0.00 59 1012.2
20191214101628 34 275 9.0 21.0 0.00 0.00 0.00 65 1012.1
20191214100121 34 276 11.0 19.0 0.00 0.00 0.00 75 1012.1
20191214094652 34 297 7.0 13.0 0.00 0.00 0.00 79 1012.1
20191214093055 34 273 12.0 27.0 0.00 0.00 0.00 76 1011.7
20191214091716 34 293 12.0 24.0 0.00 0.00 0.00 76 1011.7
20191214090113 35 268 18.0 28.0 0.00 0.00 0.00 70 1011.6
20191214084644 35 273 12.0 28.0 0.00 0.00 0.00 70 1011.9
20191214083046 35 281 17.0 28.0 0.00 0.00 0.00 71 1012.0